createdAt,value
2018-11-11T00:02:17.063Z,98802.50
2018-11-11T00:04:48.481Z,98800.48
2018-11-11T00:07:21.261Z,98805.70
2018-11-11T00:09:52.517Z,98800.66
2018-11-11T00:12:27.248Z,98804.31
2018-11-11T00:14:59.296Z,98804.77
2018-11-11T00:17:29.837Z,98801.53
2018-11-11T00:20:01.154Z,98803.39
2018-11-11T00:22:33.325Z,98789.58
2018-11-11T00:25:04.857Z,98804.66
2018-11-11T00:27:41.606Z,98802.67
2018-11-11T00:33:06.528Z,98807.53
2018-11-11T00:35:38.414Z,98807.48
2018-11-11T00:38:09.402Z,98816.53
2018-11-11T00:40:41.411Z,98820.86
2018-11-11T00:43:16.401Z,98819.55
2018-11-11T00:45:49.277Z,98823.86
2018-11-11T00:48:20.697Z,98823.20
2018-11-11T00:50:57.222Z,98822.87
2018-11-11T00:53:30.997Z,98827.33
2018-11-11T00:56:07.385Z,98824.52
2018-11-11T00:58:40.364Z,98819.89
2018-11-11T01:01:14.316Z,98816.02
2018-11-11T01:03:45.740Z,98817.92
2018-11-11T01:06:16.478Z,98817.88
2018-11-11T01:08:48.460Z,98815.52
2018-11-11T01:11:19.917Z,98806.44
2018-11-11T01:13:51.520Z,98818.73
2018-11-11T01:16:23.788Z,98819.77
2018-11-11T01:18:55.692Z,98809.58
2018-11-11T01:21:27.869Z,98815.36
2018-11-11T01:23:58.856Z,98818.23
2018-11-11T01:26:31.244Z,98820.27
2018-11-11T01:29:02.560Z,98818.81
2018-11-11T01:31:33.599Z,98812.20
2018-11-11T01:34:04.212Z,98812.44
2018-11-11T01:36:41.353Z,98805.27
2018-11-11T01:39:12.729Z,98812.29
2018-11-11T01:41:44.587Z,98817.73
2018-11-11T01:44:17.791Z,98814.05
2018-11-11T01:46:48.175Z,98808.78
2018-11-11T01:49:18.833Z,98820.56
2018-11-11T01:51:49.787Z,98815.39
2018-11-11T01:54:22.552Z,98815.43
2018-11-11T01:56:55.661Z,98814.62
2018-11-11T01:59:26.740Z,98811.44
2018-11-11T02:01:59.888Z,98809.70
2018-11-11T02:04:30.769Z,98811.20
2018-11-11T02:07:05.253Z,98813.16
2018-11-11T02:09:36.653Z,98818.41
2018-11-11T02:12:08.308Z,98812.14
2018-11-11T02:14:38.987Z,98819.03
2018-11-11T02:17:11.756Z,98817.06
2018-11-11T02:19:42.467Z,98813.63
2018-11-11T02:22:21.538Z,98808.11
2018-11-11T02:24:54.100Z,98814.53
2018-11-11T02:27:25.916Z,98815.82
2018-11-11T02:29:59.633Z,98817.27
2018-11-11T02:32:30.840Z,98810.33
2018-11-11T02:35:04.090Z,98804.94
2018-11-11T02:37:34.946Z,98801.51
2018-11-11T02:40:10.073Z,98797.69
2018-11-11T02:42:41.549Z,98803.36
2018-11-11T02:45:14.147Z,98809.49
2018-11-11T02:47:58.554Z,98811.77
2018-11-11T02:50:32.797Z,98807.51
2018-11-11T02:53:03.606Z,98805.11
2018-11-11T02:55:36.803Z,98805.78
2018-11-11T02:58:09.892Z,98808.03
2018-11-11T03:00:41.381Z,98820.05
2018-11-11T03:03:14.017Z,98823.52
2018-11-11T03:05:44.995Z,98819.52
2018-11-11T03:08:18.182Z,98826.53
2018-11-11T03:10:50.973Z,98830.92
2018-11-11T03:13:22.442Z,98826.09
2018-11-11T03:15:55.100Z,98842.34
2018-11-11T03:18:26.409Z,98837.02
2018-11-11T03:20:58.902Z,98844.61
2018-11-11T03:23:30.495Z,98852.39
2018-11-11T03:26:03.218Z,98861.80
2018-11-11T03:28:34.400Z,98862.32
2018-11-11T03:31:08.280Z,98868.05
2018-11-11T03:33:41.164Z,98872.18
2018-11-11T03:36:11.825Z,98868.58
2018-11-11T03:38:42.664Z,98872.52
2018-11-11T03:41:24.224Z,98865.13
2018-11-11T03:43:55.368Z,98867.05
2018-11-11T03:46:28.221Z,98870.16
2018-11-11T03:48:59.044Z,98864.95
2018-11-11T03:51:30.100Z,98856.45
2018-11-11T03:54:06.428Z,98849.17
2018-11-11T03:56:37.184Z,98852.45
2018-11-11T03:59:08.229Z,98864.77
2018-11-11T04:01:41.385Z,98863.17
2018-11-11T04:04:12.401Z,98860.09
2018-11-11T04:06:45.332Z,98858.13
2018-11-11T04:09:16.339Z,98846.48
2018-11-11T04:11:48.232Z,98863.14
2018-11-11T04:14:20.465Z,98870.90
2018-11-11T04:16:51.318Z,98873.08
2018-11-11T04:19:22.456Z,98866.55
2018-11-11T04:21:53.100Z,98871.38
2018-11-11T04:24:23.638Z,98875.81
2018-11-11T04:26:59.079Z,98894.14
2018-11-11T04:29:30.273Z,98889.77
2018-11-11T04:32:04.332Z,98892.64
2018-11-11T04:34:37.781Z,98893.00
2018-11-11T04:37:09.803Z,98897.55
2018-11-11T04:39:41.720Z,98900.20
2018-11-11T04:42:14.723Z,98901.27
2018-11-11T04:44:45.431Z,98903.59
2018-11-11T04:47:18.620Z,98904.41
2018-11-11T04:49:52.426Z,98900.03
2018-11-11T04:52:25.569Z,98901.45
2018-11-11T04:54:56.590Z,98904.27
2018-11-11T04:57:29.882Z,98918.33
2018-11-11T05:00:03.890Z,98914.45
2018-11-11T05:02:38.130Z,98909.33
2018-11-11T05:05:11.905Z,98915.34
2018-11-11T05:08:02.615Z,98919.20
2018-11-11T05:10:36.412Z,98922.03
2018-11-11T05:13:08.720Z,98921.95
2018-11-11T05:15:40.240Z,98930.52
2018-11-11T05:18:10.780Z,98932.19
2018-11-11T05:20:42.468Z,98937.20
2018-11-11T05:23:14.629Z,98939.23
2018-11-11T05:25:46.394Z,98939.38
2018-11-11T05:28:18.518Z,98935.26
2018-11-11T05:30:51.366Z,98945.85
2018-11-11T05:33:23.544Z,98941.73
2018-11-11T05:36:00.141Z,98955.32
2018-11-11T05:38:33.792Z,98957.53
2018-11-11T05:41:09.804Z,98955.35
2018-11-11T05:43:45.849Z,98976.76
2018-11-11T05:46:21.918Z,98988.00
2018-11-11T05:48:57.905Z,98992.16
2018-11-11T05:51:34.286Z,98984.20
2018-11-11T05:54:10.448Z,98988.59
2018-11-11T05:56:46.733Z,98993.34
2018-11-11T05:59:22.754Z,98992.14
2018-11-11T06:01:58.876Z,99002.13
2018-11-11T06:04:35.196Z,99008.54
2018-11-11T06:07:11.545Z,99002.56
2018-11-11T06:09:47.920Z,98981.38
2018-11-11T06:12:24.280Z,99018.57
2018-11-11T06:15:00.272Z,99012.44
2018-11-11T06:17:36.738Z,99019.43
2018-11-11T06:23:03.261Z,99019.41
2018-11-11T06:25:59.443Z,99037.48
2018-11-11T06:28:35.546Z,99029.27
2018-11-11T06:31:11.704Z,99033.44
2018-11-11T06:33:47.855Z,99043.09
2018-11-11T06:36:24.111Z,99050.05
2018-11-11T06:39:00.234Z,99049.92
2018-11-11T06:41:36.613Z,99052.65
2018-11-11T06:44:12.941Z,99045.53
2018-11-11T06:46:49.020Z,99040.47
2018-11-11T06:49:25.194Z,99040.92
2018-11-11T06:52:01.273Z,99050.81
2018-11-11T06:54:37.469Z,99055.90
2018-11-11T06:57:13.485Z,99050.36
2018-11-11T06:59:49.949Z,99047.33
2018-11-11T07:02:38.510Z,99050.32
2018-11-11T07:05:15.192Z,98912.19
2018-11-11T07:07:54.096Z,99056.81
2018-11-11T07:10:31.122Z,99055.81
2018-11-11T07:13:07.160Z,99060.88
2018-11-11T07:15:43.253Z,99054.31
2018-11-11T07:18:19.318Z,99050.08
2018-11-11T07:20:55.434Z,99055.79
2018-11-11T07:23:31.608Z,99065.66
2018-11-11T07:26:07.985Z,99071.67
2018-11-11T07:28:44.402Z,99071.16
2018-11-11T07:31:20.861Z,99070.39
2018-11-11T07:33:57.253Z,99071.37
2018-11-11T07:36:33.468Z,99076.97
2018-11-11T07:39:11.673Z,99081.17
2018-11-11T07:41:47.757Z,99085.12
2018-11-11T07:44:24.120Z,99078.69
2018-11-11T07:47:00.494Z,99077.19
2018-11-11T07:49:36.529Z,99068.14
2018-11-11T07:52:12.639Z,99071.52
2018-11-11T07:54:48.653Z,99086.43
2018-11-11T07:57:24.902Z,99092.45
2018-11-11T08:00:01.172Z,99107.20
2018-11-11T08:02:37.479Z,99097.02
2018-11-11T08:05:13.676Z,99094.73
2018-11-11T08:07:55.520Z,99107.08
2018-11-11T08:10:42.781Z,99106.66
2018-11-11T08:13:18.975Z,99100.08
2018-11-11T08:15:55.186Z,99103.55
2018-11-11T08:18:31.393Z,99113.61
2018-11-11T08:21:07.635Z,99106.12
2018-11-11T08:23:43.768Z,99113.46
2018-11-11T08:26:19.773Z,99118.69
2018-11-11T08:28:55.900Z,99129.19
2018-11-11T08:31:32.086Z,99133.83
2018-11-11T08:34:08.141Z,99123.39
2018-11-11T08:36:44.264Z,99123.75
2018-11-11T08:39:21.009Z,99120.98
2018-11-11T08:41:58.718Z,99134.36
2018-11-11T08:44:34.673Z,99135.19
2018-11-11T08:47:10.873Z,99128.32
2018-11-11T08:49:46.956Z,99125.23
2018-11-11T08:52:23.015Z,99126.61
2018-11-11T08:54:59.249Z,99144.19
2018-11-11T08:57:35.881Z,99157.89
2018-11-11T09:00:15.606Z,99153.14
2018-11-11T09:02:59.898Z,99157.84
2018-11-11T09:05:36.085Z,99169.37
2018-11-11T09:08:12.139Z,99168.01
2018-11-11T09:10:48.183Z,99167.76
2018-11-11T09:13:24.274Z,99160.94
2018-11-11T09:16:00.597Z,99168.92
2018-11-11T09:18:36.765Z,99167.23
2018-11-11T09:21:13.982Z,99173.67
2018-11-11T09:23:50.608Z,99176.98
2018-11-11T09:26:27.007Z,99168.94
2018-11-11T09:29:03.293Z,99179.33
2018-11-11T09:31:39.753Z,99184.95
2018-11-11T09:34:16.114Z,99186.91
2018-11-11T09:36:52.275Z,99169.27
2018-11-11T09:39:28.358Z,99158.47
2018-11-11T09:42:05.313Z,99156.91
2018-11-11T09:44:41.557Z,99156.16
2018-11-11T09:47:18.321Z,99131.95
2018-11-11T09:49:54.505Z,99172.56
2018-11-11T09:52:30.578Z,99183.05
2018-11-11T09:55:08.618Z,99187.89
2018-11-11T09:57:45.147Z,99195.44
2018-11-11T10:00:33.410Z,99205.63
2018-11-11T10:03:15.762Z,99212.64
2018-11-11T10:05:56.957Z,99210.20
2018-11-11T10:10:40.106Z,99219.62
2018-11-11T10:15:24.093Z,99216.89
2018-11-11T10:18:17.146Z,99224.22
2018-11-11T10:21:02.985Z,99225.64
2018-11-11T10:24:00.085Z,99233.05
2018-11-11T10:26:40.660Z,99234.33
2018-11-11T10:31:26.564Z,99235.46
2018-11-11T10:34:07.325Z,99231.37
2018-11-11T10:36:47.978Z,99234.98
2018-11-11T10:39:35.200Z,99230.80
2018-11-11T10:42:18.228Z,99235.72
2018-11-11T10:44:59.509Z,99239.92
2018-11-11T10:47:52.909Z,99242.24
2018-11-11T10:50:32.305Z,99248.77
2018-11-11T10:53:08.528Z,99247.27
2018-11-11T10:55:44.674Z,99252.13
2018-11-11T10:58:21.045Z,99248.42
2018-11-11T11:01:02.560Z,99245.92
2018-11-11T11:03:38.692Z,99238.25
2018-11-11T11:06:15.127Z,99234.06
2018-11-11T11:08:56.922Z,99235.03
2018-11-11T11:11:33.125Z,99236.23
2018-11-11T11:14:09.382Z,99240.09
2018-11-11T11:16:45.438Z,99239.76
2018-11-11T11:19:21.661Z,99235.72
2018-11-11T11:21:55.153Z,99235.59
2018-11-11T11:24:25.795Z,99184.11
2018-11-11T11:26:58.613Z,99257.55
2018-11-11T11:29:32.526Z,99256.22
2018-11-11T11:32:05.139Z,99264.05
2018-11-11T11:34:35.921Z,99270.97
2018-11-11T11:37:06.496Z,99256.59
2018-11-11T11:39:37.356Z,99257.91
2018-11-11T11:42:10.538Z,99256.91
2018-11-11T11:44:44.093Z,99256.69
2018-11-11T11:47:22.179Z,99261.12
2018-11-11T11:49:52.953Z,99254.41
2018-11-11T11:52:30.044Z,99258.23
2018-11-11T11:55:01.933Z,99256.94
2018-11-11T11:57:34.267Z,99260.22
2018-11-11T12:00:09.618Z,99265.09
2018-11-11T12:02:50.422Z,99260.66
2018-11-11T12:05:40.982Z,99264.78
2018-11-11T12:08:13.432Z,99263.78
2018-11-11T12:10:46.431Z,99264.58
2018-11-11T12:13:19.831Z,99265.32
2018-11-11T12:15:54.435Z,99275.02
2018-11-11T12:18:26.476Z,99267.36
2018-11-11T12:20:58.057Z,99268.55
2018-11-11T12:23:29.349Z,99269.89
2018-11-11T12:26:06.079Z,99268.74
2018-11-11T12:28:42.522Z,99263.22
2018-11-11T12:31:13.122Z,99267.86
2018-11-11T12:33:51.528Z,99272.17
2018-11-11T12:36:24.558Z,99271.39
2018-11-11T12:38:55.478Z,99275.95
2018-11-11T12:41:29.050Z,99288.08
2018-11-11T12:43:59.404Z,99289.86
2018-11-11T12:46:36.535Z,99305.33
2018-11-11T12:49:10.475Z,99306.13
2018-11-11T12:51:44.285Z,99308.25
2018-11-11T12:54:15.824Z,99315.91
2018-11-11T12:56:46.335Z,99304.88
2018-11-11T12:59:21.460Z,99304.73
2018-11-11T13:01:52.899Z,99317.48
2018-11-11T13:04:26.668Z,99320.89
2018-11-11T13:06:58.309Z,99317.92
2018-11-11T13:09:29.492Z,99329.08
2018-11-11T13:12:01.813Z,99325.30
2018-11-11T13:14:33.283Z,99325.14
2018-11-11T13:17:07.464Z,99323.61
2018-11-11T13:19:40.573Z,99320.25
2018-11-11T13:22:16.668Z,99321.95
2018-11-11T13:24:50.120Z,99317.98
2018-11-11T13:27:23.116Z,99324.51
2018-11-11T13:29:55.805Z,99331.09
2018-11-11T13:32:28.959Z,99337.39
2018-11-11T13:35:03.510Z,99346.95
2018-11-11T13:37:36.568Z,99346.86
2018-11-11T13:40:13.543Z,99341.48
2018-11-11T13:42:58.253Z,99345.31
2018-11-11T13:45:29.450Z,99331.44
2018-11-11T13:48:02.842Z,99333.43
2018-11-11T13:50:34.099Z,99343.69
2018-11-11T13:53:04.881Z,99342.25
2018-11-11T13:55:37.058Z,99351.56
2018-11-11T13:58:07.552Z,99353.79
2018-11-11T14:00:44.005Z,99348.23
2018-11-11T14:03:15.868Z,99360.26
2018-11-11T14:05:47.445Z,99366.72
2018-11-11T14:08:20.712Z,99364.41
2018-11-11T14:10:52.598Z,99368.55
2018-11-11T14:13:27.647Z,99368.39
2018-11-11T14:15:58.503Z,99374.79
2018-11-11T14:18:31.296Z,99378.23
2018-11-11T14:21:02.961Z,99373.91
2018-11-11T14:23:36.468Z,99370.77
2018-11-11T14:26:10.855Z,99376.94
2018-11-11T14:28:42.251Z,99382.04
2018-11-11T14:31:24.083Z,99380.81
2018-11-11T14:33:57.156Z,99384.09
2018-11-11T14:36:28.146Z,99397.81
2018-11-11T14:38:59.361Z,99394.59
2018-11-11T14:41:31.419Z,99405.16
2018-11-11T14:44:05.025Z,99413.70
2018-11-11T14:46:43.840Z,99420.50
2018-11-11T14:49:23.047Z,99426.09
2018-11-11T14:51:56.333Z,99422.05
2018-11-11T14:54:29.265Z,99427.41
2018-11-11T14:57:02.449Z,99427.78
2018-11-11T14:59:33.176Z,99402.27
2018-11-11T15:02:03.951Z,99434.12
2018-11-11T15:04:40.172Z,99443.55
2018-11-11T15:07:14.618Z,99435.13
2018-11-11T15:09:53.463Z,99432.61
2018-11-11T15:12:27.816Z,99432.36
2018-11-11T15:14:58.981Z,99431.70
2018-11-11T15:17:30.478Z,99447.67
2018-11-11T15:20:06.928Z,99451.77
2018-11-11T15:22:39.236Z,99447.59
2018-11-11T15:25:14.559Z,99453.37
2018-11-11T15:28:05.914Z,99452.44
2018-11-11T15:30:40.411Z,99456.86
2018-11-11T15:33:14.148Z,99459.87
2018-11-11T15:35:48.425Z,99458.30
2018-11-11T15:38:22.297Z,99469.58
2018-11-11T15:40:56.196Z,99472.09
2018-11-11T15:43:30.129Z,99475.59
2018-11-11T15:46:02.477Z,99472.88
2018-11-11T15:48:34.137Z,99478.29
2018-11-11T15:51:06.446Z,99475.05
2018-11-11T15:53:38.360Z,99480.18
2018-11-11T15:56:11.222Z,99473.77
2018-11-11T15:58:41.572Z,99384.95
2018-11-11T16:01:22.126Z,99469.84
2018-11-11T16:04:02.645Z,99467.19
2018-11-11T16:06:36.259Z,99476.98
2018-11-11T16:09:12.758Z,99491.25
2018-11-11T16:11:43.291Z,99485.09
2018-11-11T16:14:16.578Z,99486.98
2018-11-11T16:16:47.633Z,99496.84
2018-11-11T16:19:21.571Z,99488.92
2018-11-11T16:21:54.574Z,99487.62
2018-11-11T16:24:27.680Z,99488.70
2018-11-11T16:26:59.012Z,99493.54
2018-11-11T16:29:31.660Z,99490.33
2018-11-11T16:32:02.661Z,99501.38
2018-11-11T16:34:35.553Z,99503.00
2018-11-11T16:37:06.742Z,99513.97
2018-11-11T16:39:38.010Z,99511.88
2018-11-11T16:42:09.762Z,99517.88
2018-11-11T16:44:42.710Z,99524.05
2018-11-11T16:47:13.781Z,99521.50
2018-11-11T16:49:47.531Z,99519.59
2018-11-11T16:52:19.872Z,99519.77
2018-11-11T16:54:50.982Z,99523.20
2018-11-11T16:57:27.660Z,99512.84
2018-11-11T16:59:58.528Z,99513.54
2018-11-11T17:02:31.129Z,99524.84
2018-11-11T17:05:02.596Z,99528.81
2018-11-11T17:07:33.120Z,99526.45
2018-11-11T17:10:05.281Z,99520.00
2018-11-11T17:12:44.494Z,99506.41
2018-11-11T17:15:27.460Z,99513.39
2018-11-11T17:17:58.572Z,99515.23
2018-11-11T17:20:39.525Z,99506.66
2018-11-11T17:23:11.669Z,99505.84
2018-11-11T17:25:45.550Z,99512.55
2018-11-11T17:28:19.058Z,99515.97
2018-11-11T17:30:49.849Z,99516.69
2018-11-11T17:33:22.370Z,99515.62
2018-11-11T17:35:55.070Z,99516.77
2018-11-11T17:38:29.936Z,99510.56
2018-11-11T17:41:05.675Z,99530.95
2018-11-11T17:43:37.427Z,99532.83
2018-11-11T17:46:07.994Z,99531.47
2018-11-11T17:48:41.887Z,99527.48
2018-11-11T17:51:13.044Z,99527.10
2018-11-11T17:53:43.863Z,99526.86
2018-11-11T17:56:24.252Z,99525.19
2018-11-11T17:58:55.794Z,99523.28
2018-11-11T18:01:27.101Z,99524.77
2018-11-11T18:04:06.809Z,99539.19
2018-11-11T18:06:37.426Z,99534.23
2018-11-11T18:09:13.809Z,99538.80
2018-11-11T18:11:51.960Z,99535.63
2018-11-11T18:14:23.692Z,99522.72
2018-11-11T18:16:58.864Z,99518.88
2018-11-11T18:19:30.308Z,99529.73
2018-11-11T18:22:03.141Z,99539.20
2018-11-11T18:24:33.786Z,99533.12
2018-11-11T18:27:13.084Z,99536.11
2018-11-11T18:29:47.512Z,99527.48
2018-11-11T18:32:20.168Z,99524.38
2018-11-11T18:34:50.813Z,99522.80
2018-11-11T18:37:26.314Z,99528.58
2018-11-11T18:39:57.425Z,99526.69
2018-11-11T18:42:30.203Z,99517.01
2018-11-11T18:45:02.238Z,99519.27
2018-11-11T18:47:33.060Z,99519.44
2018-11-11T18:50:11.712Z,99519.41
2018-11-11T18:52:56.339Z,99527.91
2018-11-11T18:55:30.363Z,99528.59
2018-11-11T18:58:16.944Z,99531.45
2018-11-11T19:00:49.209Z,99533.91
2018-11-11T19:03:22.313Z,99532.59
2018-11-11T19:05:55.381Z,99532.59
2018-11-11T19:08:26.259Z,99530.75
2018-11-11T19:11:02.652Z,99538.97
2018-11-11T19:13:35.542Z,99550.23
2018-11-11T19:16:09.693Z,99520.56
2018-11-11T19:18:42.601Z,99554.94
2018-11-11T19:21:13.674Z,99555.63
2018-11-11T19:23:46.353Z,99559.09
2018-11-11T19:26:17.491Z,99551.45
2018-11-11T19:28:53.193Z,99546.81
2018-11-11T19:31:23.801Z,99546.77
2018-11-11T19:33:54.588Z,99551.42
2018-11-11T19:36:27.585Z,99542.38
2018-11-11T19:38:58.410Z,99549.39
2018-11-11T19:41:31.991Z,99547.95
2018-11-11T19:44:02.873Z,99545.47
2018-11-11T19:46:36.096Z,99552.28
2018-11-11T19:49:13.756Z,99552.63
2018-11-11T19:51:48.960Z,99555.24
2018-11-11T19:54:19.608Z,99556.17
2018-11-11T19:56:50.645Z,99564.02
2018-11-11T19:59:24.493Z,99563.30
2018-11-11T20:01:57.637Z,99565.98
2018-11-11T20:04:30.826Z,99564.94
2018-11-11T20:07:03.979Z,99561.25
2018-11-11T20:09:35.869Z,99563.74
2018-11-11T20:12:08.952Z,99572.13
2018-11-11T20:14:39.691Z,99567.80
2018-11-11T20:17:10.618Z,99564.40
2018-11-11T20:19:44.257Z,99577.86
2018-11-11T20:22:16.469Z,99582.64
2018-11-11T20:24:53.745Z,99578.59
2018-11-11T20:27:29.528Z,99579.41
2018-11-11T20:30:09.835Z,99572.10
2018-11-11T20:32:42.089Z,99571.97
2018-11-11T20:37:58.112Z,99566.55
2018-11-11T20:40:29.371Z,99562.98
2018-11-11T20:43:11.711Z,99569.48
2018-11-11T20:45:43.926Z,99573.16
2018-11-11T20:48:15.772Z,99578.41
2018-11-11T20:50:46.302Z,99575.25
2018-11-11T20:53:19.660Z,99551.87
2018-11-11T20:55:53.160Z,99584.92
2018-11-11T20:58:23.908Z,99593.67
2018-11-11T21:00:56.152Z,99587.97
2018-11-11T21:03:27.986Z,99591.61
2018-11-11T21:05:59.084Z,99583.58
2018-11-11T21:08:30.988Z,99594.95
2018-11-11T21:11:03.108Z,99596.48
2018-11-11T21:13:34.030Z,99598.27
2018-11-11T21:16:06.193Z,99594.91
2018-11-11T21:18:36.814Z,99595.91
2018-11-11T21:21:07.782Z,99596.02
2018-11-11T21:23:40.937Z,99591.33
2018-11-11T21:26:14.040Z,99595.98
2018-11-11T21:28:47.020Z,99589.87
2018-11-11T21:31:30.414Z,99590.48
2018-11-11T21:34:01.925Z,99593.12
2018-11-11T21:36:37.830Z,99595.72
2018-11-11T21:39:12.925Z,99604.14
2018-11-11T21:41:45.180Z,99601.93
2018-11-11T21:44:17.380Z,99602.17
2018-11-11T21:46:51.148Z,99597.37
2018-11-11T21:49:23.828Z,99595.78
2018-11-11T21:51:59.270Z,99593.64
2018-11-11T21:54:29.846Z,99602.36
2018-11-11T21:57:06.322Z,99601.94
2018-11-11T21:59:39.053Z,99598.33
2018-11-11T22:02:10.235Z,99602.88
2018-11-11T22:04:43.328Z,99597.52
2018-11-11T22:07:15.908Z,99604.56
2018-11-11T22:09:47.361Z,99604.73
2018-11-11T22:12:22.870Z,99605.94
2018-11-11T22:14:57.216Z,99609.89
2018-11-11T22:17:30.310Z,99603.38
2018-11-11T22:20:02.278Z,99608.66
2018-11-11T22:22:33.429Z,99607.00
2018-11-11T22:25:05.994Z,99598.77
2018-11-11T22:27:38.132Z,99594.05
2018-11-11T22:30:10.968Z,99597.46
2018-11-11T22:32:58.516Z,99594.77
2018-11-11T22:35:43.432Z,99592.44
2018-11-11T22:38:14.234Z,99594.99
2018-11-11T22:40:47.240Z,99585.45
2018-11-11T22:43:30.272Z,99593.78
2018-11-11T22:46:02.308Z,99598.89
2018-11-11T22:48:34.445Z,99585.27
2018-11-11T22:51:06.584Z,99588.05
2018-11-11T22:53:39.525Z,99587.26
2018-11-11T22:56:11.843Z,99588.63
2018-11-11T22:58:42.934Z,99587.52
2018-11-11T23:01:20.421Z,99590.86
2018-11-11T23:03:52.745Z,99585.69
2018-11-11T23:06:23.287Z,99580.08
2018-11-11T23:08:55.591Z,99582.63
2018-11-11T23:11:27.456Z,99583.69
2018-11-11T23:13:59.192Z,99578.66
2018-11-11T23:16:31.415Z,99589.30
2018-11-11T23:19:02.068Z,99596.73
2018-11-11T23:21:39.317Z,99599.49
2018-11-11T23:24:11.421Z,99606.80
2018-11-11T23:26:45.563Z,99603.22
2018-11-11T23:29:18.624Z,99601.54
2018-11-11T23:31:51.287Z,99593.44
2018-11-11T23:34:22.747Z,99604.41
2018-11-11T23:36:55.614Z,99597.14
2018-11-11T23:39:26.726Z,99598.03
2018-11-11T23:42:02.327Z,99591.47
2018-11-11T23:44:37.244Z,99587.75
2018-11-11T23:47:09.380Z,99584.52
2018-11-11T23:49:46.364Z,99589.13
2018-11-11T23:52:19.796Z,99597.44
2018-11-11T23:54:53.006Z,99604.20
2018-11-11T23:57:23.660Z,99612.00
2018-11-11T23:59:54.913Z,99611.82
